Time;durP1;ratioP1;P1;durP2;ratioP2;P2;SDS_P1;SDS_P2;PMS_P1;PMS_P2;Temp;Humidity;BMP_temperature;BMP_pressure;BME280_temperature;BME280_humidity;BME280_pressure;Samples;Min_cycle;Max_cycle;Signal;HPM_P1;HPM_P2
2023/06/06 00:01:32;;;;;;;3.80;2.77;;;25.20;46.70;;;;;;5031207;28;20440;-48
2023/06/06 00:03:58;;;;;;;4.20;2.60;;;25.10;46.90;;;;;;5018066;28;20440;-49
2023/06/06 00:06:27;;;;;;;3.07;2.83;;;25.20;46.80;;;;;;5017999;28;20296;-47
2023/06/06 00:08:53;;;;;;;4.07;3.30;;;25.20;46.60;;;;;;5030105;28;20201;-49
2023/06/06 00:11:20;;;;;;;3.37;3.07;;;25.20;47.00;;;;;;5023870;28;20451;-49
2023/06/06 00:13:49;;;;;;;3.33;3.03;;;25.20;46.90;;;;;;5019394;28;20201;-52
2023/06/06 00:16:16;;;;;;;2.70;2.50;;;25.20;46.50;;;;;;5021196;28;20498;-49
2023/06/06 00:18:45;;;;;;;2.40;2.20;;;25.20;46.40;;;;;;5029043;28;20491;-46
2023/06/06 00:21:12;;;;;;;3.33;2.67;;;25.20;47.10;;;;;;5023951;28;20480;-48
2023/06/06 00:23:37;;;;;;;2.87;2.67;;;25.20;46.80;;;;;;5021493;28;20444;-49
2023/06/06 00:26:03;;;;;;;3.40;3.10;;;25.20;46.20;;;;;;5019363;28;20433;-47
2023/06/06 00:28:31;;;;;;;3.03;2.83;;;25.30;46.10;;;;;;5032094;28;20271;-49
2023/06/06 00:30:58;;;;;;;3.10;2.80;;;25.30;46.00;;;;;;5029740;28;20556;-51
2023/06/06 00:33:23;;;;;;;2.97;2.77;;;25.40;46.00;;;;;;5015940;28;20533;-50
2023/06/06 00:35:49;;;;;;;3.17;2.83;;;25.40;45.80;;;;;;5013824;28;20920;-51
2023/06/06 00:38:14;;;;;;;5.80;3.07;;;25.40;45.80;;;;;;5022932;28;20224;-51
2023/06/06 00:40:40;;;;;;;2.93;2.73;;;25.40;46.00;;;;;;5021877;28;20236;-52
2023/06/06 00:43:05;;;;;;;3.90;2.90;;;25.40;45.90;;;;;;5018225;28;20200;-50
2023/06/06 00:45:31;;;;;;;3.37;3.17;;;25.40;45.80;;;;;;5024436;28;20197;-49
2023/06/06 00:47:57;;;;;;;2.90;2.70;;;25.40;46.50;;;;;;5017358;28;20200;-50
2023/06/06 00:50:23;;;;;;;3.37;3.10;;;25.30;46.10;;;;;;5027573;28;20221;-51
2023/06/06 00:52:49;;;;;;;3.17;2.97;;;25.20;46.10;;;;;;5021954;28;20456;-50
2023/06/06 00:55:17;;;;;;;3.10;2.27;;;25.20;46.10;;;;;;5022080;28;21029;-47
2023/06/06 00:57:45;;;;;;;3.30;3.00;;;25.20;45.90;;;;;;5019675;28;20220;-48
2023/06/06 01:00:11;;;;;;;4.23;3.57;;;25.20;45.90;;;;;;5029581;28;20444;-51
2023/06/06 01:02:39;;;;;;;4.07;3.67;;;25.20;45.90;;;;;;5025061;28;20543;-49
2023/06/06 01:05:06;;;;;;;2.77;2.57;;;25.20;46.10;;;;;;5024172;28;20502;-47
2023/06/06 01:07:32;;;;;;;3.40;3.20;;;25.20;46.10;;;;;;5021874;28;20480;-50
2023/06/06 01:09:58;;;;;;;8.27;2.97;;;25.20;45.80;;;;;;5020882;28;21022;-50
2023/06/06 01:12:43;;;;;;;5.30;3.10;;;25.10;46.00;;;;;;5021513;28;20194;-51
2023/06/06 01:15:39;;;;;;;5.60;3.13;;;25.20;46.00;;;;;;5023738;28;20200;-48
2023/06/06 01:18:05;;;;;;;3.03;2.83;;;25.20;45.80;;;;;;5026621;28;21005;-51
2023/06/06 01:20:31;;;;;;;3.33;3.03;;;25.20;45.80;;;;;;5028540;28;20432;-50
2023/06/06 01:22:58;;;;;;;3.63;3.33;;;25.20;46.20;;;;;;5022721;28;20862;-46
2023/06/06 01:25:25;;;;;;;3.30;3.03;;;25.10;46.10;;;;;;5025371;28;20450;-47
2023/06/06 01:27:53;;;;;;;2.80;2.60;;;25.00;46.20;;;;;;5023771;28;20432;-46
2023/06/06 01:30:22;;;;;;;3.03;2.83;;;25.00;46.10;;;;;;5023152;28;20935;-49
2023/06/06 01:33:14;;;;;;;3.40;2.53;;;25.00;46.00;;;;;;5024132;28;20457;-48
2023/06/06 01:35:56;;;;;;;2.87;2.67;;;25.00;46.00;;;;;;5024979;28;20458;-51
2023/06/06 01:38:30;;;;;;;2.97;2.67;;;25.00;45.90;;;;;;5021926;28;20841;-50
2023/06/06 01:40:58;;;;;;;3.40;3.20;;;25.00;46.00;;;;;;5021746;28;20995;-50
2023/06/06 01:43:26;;;;;;;3.80;3.30;;;25.00;46.00;;;;;;5019299;28;20444;-52
2023/06/06 01:45:53;;;;;;;3.23;3.00;;;25.00;46.00;;;;;;5017951;28;20445;-51
2023/06/06 01:48:19;;;;;;;3.67;3.37;;;25.00;45.90;;;;;;5015391;28;20462;-49
2023/06/06 01:50:46;;;;;;;3.60;3.30;;;24.90;45.90;;;;;;5022177;28;20766;-52
2023/06/06 01:53:12;;;;;;;4.00;3.70;;;25.00;45.90;;;;;;5025357;28;20966;-51
2023/06/06 01:55:38;;;;;;;3.00;2.80;;;25.00;45.80;;;;;;5020356;28;20480;-49
2023/06/06 01:58:04;;;;;;;3.63;3.17;;;24.90;45.90;;;;;;5022366;28;20234;-50
2023/06/06 02:00:30;;;;;;;4.20;3.80;;;24.90;46.00;;;;;;5018779;28;20436;-51
2023/06/06 02:02:56;;;;;;;3.10;2.87;;;24.90;46.00;;;;;;5023606;28;20467;-50
2023/06/06 02:05:22;;;;;;;3.67;3.37;;;24.90;46.00;;;;;;5019940;28;20621;-49
2023/06/06 02:07:49;;;;;;;2.87;2.67;;;24.80;46.30;;;;;;5013494;28;20524;-51
2023/06/06 02:10:15;;;;;;;3.10;2.90;;;24.80;45.90;;;;;;5018305;28;20285;-52
2023/06/06 02:12:41;;;;;;;4.37;3.60;;;24.80;45.80;;;;;;5021623;28;20455;-52
2023/06/06 02:15:09;;;;;;;3.87;3.57;;;24.80;45.90;;;;;;5017370;28;20553;-52
2023/06/06 02:17:35;;;;;;;4.23;3.77;;;24.80;45.90;;;;;;5021699;28;20494;-49
2023/06/06 02:20:01;;;;;;;4.00;3.60;;;24.70;46.10;;;;;;5024769;28;20460;-51
2023/06/06 02:22:27;;;;;;;4.03;3.73;;;24.60;46.30;;;;;;5012042;28;20452;-52
2023/06/06 02:24:52;;;;;;;4.23;3.83;;;24.50;46.70;;;;;;5011507;28;20807;-48
2023/06/06 02:27:19;;;;;;;4.47;4.10;;;24.30;47.00;;;;;;5022926;28;20200;-51
2023/06/06 02:29:45;;;;;;;3.73;3.43;;;24.10;47.30;;;;;;5026827;28;20197;-51
2023/06/06 02:32:11;;;;;;;4.10;3.80;;;24.00;47.50;;;;;;5023661;28;20436;-51
2023/06/06 02:34:37;;;;;;;4.30;4.00;;;23.70;47.70;;;;;;5021170;28;20448;-51
2023/06/06 02:37:06;;;;;;;4.07;3.13;;;23.50;48.20;;;;;;5023986;28;20507;-51
2023/06/06 02:39:36;;;;;;;4.90;4.30;;;23.30;48.80;;;;;;5024926;28;20584;-52
2023/06/06 02:42:05;;;;;;;4.40;4.10;;;23.10;49.30;;;;;;5028676;28;20467;-52
2023/06/06 02:44:31;;;;;;;4.27;3.87;;;22.80;49.70;;;;;;5029700;28;20816;-51
2023/06/06 02:46:57;;;;;;;4.77;3.83;;;22.70;50.20;;;;;;5029265;28;20444;-52
2023/06/06 02:49:23;;;;;;;3.87;3.57;;;22.50;50.40;;;;;;5024058;28;20290;-52
2023/06/06 02:51:48;;;;;;;5.13;3.67;;;22.30;50.70;;;;;;5019280;28;20475;-51
2023/06/06 02:54:14;;;;;;;4.00;3.60;;;22.20;50.90;;;;;;5026943;28;20197;-48
2023/06/06 02:56:39;;;;;;;4.60;4.13;;;22.00;51.10;;;;;;5026555;28;20229;-51
2023/06/06 02:59:07;;;;;;;5.10;3.83;;;22.00;51.40;;;;;;5025409;28;20289;-52
2023/06/06 03:01:34;;;;;;;7.30;4.37;;;21.90;51.50;;;;;;5035993;28;20259;-52
2023/06/06 03:03:59;;;;;;;4.60;4.20;;;21.80;51.80;;;;;;5025378;28;20880;-51
2023/06/06 03:06:25;;;;;;;4.57;4.20;;;21.70;52.00;;;;;;5026909;28;20515;-51
2023/06/06 03:08:55;;;;;;;4.37;4.07;;;21.60;52.20;;;;;;5019636;28;20728;-53
2023/06/06 03:11:21;;;;;;;4.43;4.03;;;21.50;52.30;;;;;;5028556;28;20559;-51
2023/06/06 03:13:47;;;;;;;4.10;3.80;;;21.40;52.50;;;;;;5030048;28;20532;-48
2023/06/06 03:16:15;;;;;;;4.40;4.00;;;21.30;52.60;;;;;;5023109;28;21040;-47
2023/06/06 03:18:41;;;;;;;4.73;4.20;;;21.20;52.80;;;;;;5019962;28;20248;-49
2023/06/06 03:21:07;;;;;;;8.03;4.33;;;21.10;53.00;;;;;;5023054;28;21244;-48
2023/06/06 03:23:33;;;;;;;4.30;4.00;;;21.10;53.50;;;;;;5021116;28;20557;-51
2023/06/06 03:25:58;;;;;;;4.20;3.80;;;21.10;53.50;;;;;;5030390;28;20296;-49
2023/06/06 03:28:24;;;;;;;5.80;4.13;;;21.00;53.70;;;;;;5022532;28;20716;-47
2023/06/06 03:30:49;;;;;;;4.10;3.70;;;20.90;54.00;;;;;;5024529;28;20209;-47
2023/06/06 03:33:15;;;;;;;4.20;3.80;;;20.90;54.00;;;;;;5024280;28;20193;-48
2023/06/06 03:35:42;;;;;;;4.10;3.70;;;20.80;54.10;;;;;;5026926;28;20203;-46
2023/06/06 03:38:07;;;;;;;3.93;3.63;;;20.70;54.30;;;;;;5020807;28;22363;-47
2023/06/06 03:40:33;;;;;;;5.70;4.90;;;20.80;54.50;;;;;;5029218;28;20527;-49
2023/06/06 03:42:59;;;;;;;4.00;3.70;;;20.70;54.40;;;;;;5019769;28;20291;-49
2023/06/06 03:45:24;;;;;;;5.57;4.50;;;20.80;54.40;;;;;;5021065;28;20224;-49
2023/06/06 03:47:50;;;;;;;4.20;3.80;;;20.80;54.50;;;;;;5015493;28;20200;-48
2023/06/06 03:50:16;;;;;;;4.67;4.27;;;20.60;55.00;;;;;;5019653;28;20197;-55
2023/06/06 03:52:42;;;;;;;4.83;4.43;;;20.60;55.20;;;;;;5019979;28;20196;-47
2023/06/06 03:55:09;;;;;;;4.37;4.03;;;20.50;55.30;;;;;;5023889;28;20828;-47
2023/06/06 03:57:36;;;;;;;4.40;4.00;;;20.50;55.20;;;;;;5023880;28;20493;-47
2023/06/06 04:00:05;;;;;;;4.77;4.37;;;20.40;55.10;;;;;;5015535;28;20456;-48
2023/06/06 04:02:31;;;;;;;4.83;4.43;;;20.50;55.30;;;;;;5021929;28;20525;-51
2023/06/06 04:05:01;;;;;;;4.87;4.47;;;20.50;55.60;;;;;;5023997;28;20644;-48
2023/06/06 04:07:28;;;;;;;4.60;4.30;;;20.40;55.70;;;;;;5021924;28;22515;-48
2023/06/06 04:09:54;;;;;;;5.70;5.20;;;20.40;55.70;;;;;;5024197;28;20447;-49
2023/06/06 04:12:20;;;;;;;4.70;4.30;;;20.40;55.80;;;;;;5024391;28;20441;-47
2023/06/06 04:14:47;;;;;;;4.57;4.20;;;20.40;55.90;;;;;;5022784;28;20456;-49
2023/06/06 04:17:13;;;;;;;5.77;5.30;;;20.40;56.00;;;;;;5019359;28;20263;-51
2023/06/06 04:19:38;;;;;;;5.23;4.70;;;20.30;56.10;;;;;;5023189;28;20517;-48
2023/06/06 04:22:05;;;;;;;5.43;4.93;;;20.30;56.40;;;;;;5029027;28;20189;-48
2023/06/06 04:24:31;;;;;;;6.43;4.47;;;20.30;56.70;;;;;;5026071;28;20194;-49
2023/06/06 04:26:57;;;;;;;5.77;5.13;;;20.20;56.70;;;;;;5021030;28;20498;-47
2023/06/06 04:29:23;;;;;;;5.43;4.70;;;20.10;57.00;;;;;;5022075;28;20452;-47
2023/06/06 04:31:52;;;;;;;6.70;4.90;;;20.00;57.30;;;;;;5030743;28;20527;-47
2023/06/06 04:34:23;;;;;;;5.20;4.70;;;20.10;57.40;;;;;;5016384;28;20909;-49
2023/06/06 04:36:51;;;;;;;5.27;4.87;;;20.10;57.50;;;;;;5012033;28;20491;-50
2023/06/06 04:39:19;;;;;;;5.00;4.43;;;20.00;57.40;;;;;;5024025;28;20436;-48
2023/06/06 04:41:45;;;;;;;5.93;4.70;;;20.00;57.60;;;;;;5023689;28;20443;-49
2023/06/06 04:44:10;;;;;;;5.53;4.83;;;19.90;57.80;;;;;;5023523;28;20786;-48
2023/06/06 04:46:36;;;;;;;5.00;4.60;;;20.00;57.60;;;;;;5026029;28;20199;-49
2023/06/06 04:49:02;;;;;;;6.07;4.73;;;20.10;57.50;;;;;;5023863;28;20203;-51
2023/06/06 04:51:29;;;;;;;5.00;4.60;;;20.10;57.30;;;;;;5021485;28;20566;-48
2023/06/06 04:54:05;;;;;;;6.07;5.57;;;20.10;57.30;;;;;;5023186;28;20193;-48
2023/06/06 04:56:31;;;;;;;5.77;5.27;;;20.20;57.30;;;;;;5022220;28;20851;-50
2023/06/06 04:58:57;;;;;;;5.70;5.20;;;20.30;57.30;;;;;;5012166;28;20492;-49
2023/06/06 05:01:23;;;;;;;6.20;5.60;;;20.30;57.00;;;;;;5026412;28;20196;-49
2023/06/06 05:03:52;;;;;;;5.77;5.00;;;20.30;57.00;;;;;;5028421;28;20506;-48
2023/06/06 05:06:17;;;;;;;5.40;4.90;;;20.30;57.20;;;;;;5018288;28;20428;-50
2023/06/06 05:08:46;;;;;;;5.20;4.70;;;20.30;57.10;;;;;;5027400;28;20823;-50
2023/06/06 05:11:12;;;;;;;6.53;5.00;;;20.20;57.10;;;;;;5024521;28;20199;-52
2023/06/06 05:13:37;;;;;;;4.80;4.40;;;20.20;57.10;;;;;;5025533;28;20538;-48
2023/06/06 05:16:03;;;;;;;5.23;4.80;;;20.20;56.90;;;;;;5016684;28;20432;-49
2023/06/06 05:18:32;;;;;;;4.20;3.50;;;20.20;57.10;;;;;;5029073;28;20228;-48
2023/06/06 05:21:01;;;;;;;3.90;3.60;;;20.10;57.70;;;;;;5021201;28;20221;-48
2023/06/06 05:23:31;;;;;;;5.50;5.00;;;20.30;57.00;;;;;;5026782;28;20510;-49
2023/06/06 05:25:57;;;;;;;5.30;4.65;;;20.70;56.00;;;;;;5025660;28;20487;-52
2023/06/06 05:28:27;;;;;;;5.43;4.93;;;21.00;54.90;;;;;;5030414;28;20653;-51
2023/06/06 05:30:53;;;;;;;5.40;4.90;;;21.20;54.90;;;;;;5017376;28;20468;-52
2023/06/06 05:33:22;;;;;;;4.77;4.37;;;21.30;54.90;;;;;;5021954;28;21161;-47
2023/06/06 05:35:48;;;;;;;5.53;5.03;;;21.40;54.70;;;;;;5021894;28;20209;-49
2023/06/06 05:38:15;;;;;;;5.63;5.03;;;21.50;54.50;;;;;;5023146;28;20491;-52
2023/06/06 05:40:41;;;;;;;4.97;4.57;;;21.10;54.90;;;;;;5025301;28;20201;-48
2023/06/06 05:43:06;;;;;;;5.70;4.90;;;20.90;55.40;;;;;;5019341;28;20494;-51
2023/06/06 05:45:32;;;;;;;6.20;5.40;;;21.10;55.70;;;;;;5025586;28;20199;-51
2023/06/06 05:47:57;;;;;;;5.07;4.57;;;21.30;54.50;;;;;;5024707;28;20194;-51
2023/06/06 05:50:23;;;;;;;5.17;4.73;;;21.40;54.00;;;;;;5024015;28;20703;-49
2023/06/06 05:52:48;;;;;;;5.23;4.83;;;21.60;53.70;;;;;;5027314;28;20617;-49
2023/06/06 05:55:28;;;;;;;6.13;5.60;;;21.50;53.70;;;;;;5027167;28;20271;-48
2023/06/06 05:57:55;;;;;;;4.90;4.50;;;21.50;54.00;;;;;;5028728;28;20217;-49
2023/06/06 06:00:22;;;;;;;4.30;3.90;;;21.40;54.30;;;;;;5024114;28;20443;-49
2023/06/06 06:02:51;;;;;;;4.73;4.33;;;21.60;53.90;;;;;;5030713;28;20535;-48
2023/06/06 06:05:17;;;;;;;5.17;4.43;;;21.60;53.60;;;;;;5019825;28;20787;-47
2023/06/06 06:07:43;;;;;;;5.27;4.77;;;21.50;53.80;;;;;;5027855;28;20440;-52
2023/06/06 06:10:09;;;;;;;4.70;4.30;;;21.30;53.40;;;;;;5019718;28;20954;-47
2023/06/06 06:12:34;;;;;;;6.20;4.77;;;21.20;53.70;;;;;;5026299;28;20243;-51
2023/06/06 06:15:00;;;;;;;5.37;4.90;;;21.40;53.60;;;;;;5020561;28;20447;-47
2023/06/06 06:17:26;;;;;;;5.00;4.60;;;21.60;52.80;;;;;;5020646;28;20213;-49
2023/06/06 06:19:51;;;;;;;5.80;4.10;;;21.60;52.30;;;;;;5018826;28;20709;-47
2023/06/06 06:22:17;;;;;;;5.03;4.63;;;21.70;52.10;;;;;;5022332;28;20794;-51
2023/06/06 06:24:43;;;;;;;4.20;3.80;;;21.80;52.00;;;;;;5029222;28;20204;-47
2023/06/06 06:27:08;;;;;;;5.97;4.80;;;21.80;51.80;;;;;;5031240;28;20420;-47
2023/06/06 06:29:34;;;;;;;4.53;4.20;;;21.80;51.90;;;;;;5031286;28;20671;-48
2023/06/06 06:32:00;;;;;;;5.40;5.00;;;21.80;51.70;;;;;;5031126;28;20661;-51
2023/06/06 06:34:25;;;;;;;4.63;4.10;;;22.00;52.00;;;;;;5024058;28;20280;-48
2023/06/06 06:36:51;;;;;;;4.33;4.03;;;22.10;51.40;;;;;;5031095;28;20193;-46
2023/06/06 06:39:18;;;;;;;5.30;4.30;;;22.20;51.50;;;;;;5031147;28;20201;-47
2023/06/06 06:41:47;;;;;;;5.63;4.30;;;22.20;50.80;;;;;;5031225;28;20208;-50
2023/06/06 06:44:13;;;;;;;4.57;4.17;;;22.30;51.10;;;;;;5028257;28;20805;-51
2023/06/06 06:46:38;;;;;;;4.30;3.90;;;22.40;50.70;;;;;;5026175;28;20440;-47
2023/06/06 06:49:14;;;;;;;4.63;4.10;;;22.70;50.50;;;;;;5028086;28;20208;-47
2023/06/06 06:51:40;;;;;;;4.47;4.17;;;22.90;49.80;;;;;;5017560;28;20193;-48
2023/06/06 06:54:06;;;;;;;4.43;4.03;;;22.70;49.40;;;;;;5030571;28;20598;-48
2023/06/06 06:56:31;;;;;;;4.57;4.17;;;22.80;50.20;;;;;;5031007;28;20484;-47
2023/06/06 06:58:57;;;;;;;5.10;4.50;;;22.60;49.80;;;;;;5027965;28;20228;-50
2023/06/06 07:01:27;;;;;;;5.70;4.10;;;22.60;50.00;;;;;;5025408;28;20247;-50
2023/06/06 07:03:53;;;;;;;6.00;4.10;;;22.40;50.00;;;;;;5025315;28;20417;-52
2023/06/06 07:06:20;;;;;;;4.73;4.33;;;22.70;49.70;;;;;;5030890;28;20416;-49
2023/06/06 07:08:46;;;;;;;4.90;4.30;;;22.70;49.40;;;;;;5030921;28;20465;-47
2023/06/06 07:11:11;;;;;;;5.77;4.37;;;22.70;49.70;;;;;;5031142;28;20995;-47
2023/06/06 07:13:37;;;;;;;4.13;3.80;;;22.70;50.10;;;;;;5023393;28;20194;-49
2023/06/06 07:16:02;;;;;;;4.23;3.93;;;23.00;49.30;;;;;;5030783;28;20710;-47
2023/06/06 07:18:28;;;;;;;4.90;4.50;;;23.40;48.70;;;;;;5028856;28;20232;-50
2023/06/06 07:20:54;;;;;;;5.70;4.60;;;23.80;48.10;;;;;;5031240;28;20197;-49
2023/06/06 07:23:19;;;;;;;9.27;4.60;;;24.00;47.80;;;;;;5030405;28;20532;-47
2023/06/06 07:25:45;;;;;;;4.87;4.37;;;23.90;47.70;;;;;;5027562;28;20292;-47
2023/06/06 07:28:13;;;;;;;4.77;4.37;;;24.00;47.90;;;;;;5030606;28;20236;-47
2023/06/06 07:30:38;;;;;;;5.17;4.60;;;24.30;47.30;;;;;;5025536;28;20194;-50
2023/06/06 07:33:04;;;;;;;6.60;4.40;;;24.50;47.00;;;;;;5026583;28;20800;-53
2023/06/06 07:35:32;;;;;;;7.33;4.77;;;24.80;46.60;;;;;;5033363;28;20194;-47
2023/06/06 07:37:59;;;;;;;6.30;5.70;;;24.80;46.40;;;;;;5027782;28;20601;-47
2023/06/06 07:40:25;;;;;;;7.07;4.50;;;24.60;45.90;;;;;;5033513;28;20485;-51
2023/06/06 07:42:51;;;;;;;5.47;4.17;;;24.80;45.70;;;;;;5033306;28;20440;-49
2023/06/06 07:45:16;;;;;;;4.50;4.10;;;25.00;45.60;;;;;;5032251;28;20612;-47
2023/06/06 07:47:42;;;;;;;4.33;3.93;;;25.20;45.30;;;;;;5032800;28;20185;-48
2023/06/06 07:50:08;;;;;;;4.60;4.20;;;25.40;45.30;;;;;;5026443;28;20201;-50
2023/06/06 07:52:34;;;;;;;4.23;3.83;;;25.60;45.30;;;;;;5029055;28;20254;-47
2023/06/06 07:55:01;;;;;;;4.33;4.00;;;25.90;44.30;;;;;;5032460;28;20953;-50
2023/06/06 07:57:27;;;;;;;4.63;4.23;;;26.10;43.40;;;;;;5033808;28;20583;-50
2023/06/06 07:59:54;;;;;;;4.73;4.23;;;26.30;43.00;;;;;;5027609;28;20433;-50
2023/06/06 08:02:19;;;;;;;4.07;3.60;;;26.40;43.30;;;;;;5030226;28;20439;-50
2023/06/06 08:04:45;;;;;;;4.40;4.10;;;26.50;43.10;;;;;;5033448;28;21216;-52
2023/06/06 08:07:12;;;;;;;4.73;3.83;;;26.60;42.30;;;;;;5033653;28;20540;-47
2023/06/06 08:09:38;;;;;;;5.23;4.80;;;26.80;42.00;;;;;;5033893;28;20201;-51
2023/06/06 08:12:05;;;;;;;4.67;4.27;;;26.90;41.90;;;;;;5031996;28;20420;-52
2023/06/06 08:14:34;;;;;;;4.70;4.20;;;27.00;41.80;;;;;;5029605;28;20201;-48
2023/06/06 08:17:00;;;;;;;4.60;4.10;;;27.00;41.90;;;;;;5031341;28;20428;-47
2023/06/06 08:19:26;;;;;;;5.10;3.83;;;27.10;41.30;;;;;;5025315;28;20452;-51
2023/06/06 08:21:52;;;;;;;4.50;4.10;;;27.20;41.20;;;;;;5020531;28;20440;-49
2023/06/06 08:24:17;;;;;;;4.50;4.10;;;27.30;40.20;;;;;;5025133;28;20440;-46
2023/06/06 08:26:43;;;;;;;4.70;3.73;;;27.40;39.70;;;;;;5030960;28;20225;-47
2023/06/06 08:29:08;;;;;;;4.37;3.73;;;27.40;38.00;;;;;;5028732;28;20201;-51
2023/06/06 08:31:34;;;;;;;3.60;3.33;;;27.40;37.40;;;;;;5016572;28;20221;-52
2023/06/06 08:33:59;;;;;;;3.10;2.90;;;27.40;36.60;;;;;;5024149;28;20197;-49
2023/06/06 08:36:25;;;;;;;3.70;3.40;;;27.40;36.80;;;;;;5018172;28;20232;-49
2023/06/06 08:38:52;;;;;;;4.10;3.80;;;27.60;36.70;;;;;;5016330;28;20225;-49
2023/06/06 08:41:19;;;;;;;3.90;3.60;;;27.80;36.10;;;;;;5023020;28;20936;-52
2023/06/06 08:43:46;;;;;;;4.40;3.27;;;27.90;36.00;;;;;;5038145;28;20995;-51
2023/06/06 08:46:13;;;;;;;4.20;3.80;;;28.10;35.40;;;;;;5030376;28;20463;-49
2023/06/06 08:48:40;;;;;;;3.70;3.40;;;28.30;35.10;;;;;;5022753;28;20493;-49
2023/06/06 08:51:07;;;;;;;5.63;3.60;;;28.50;34.80;;;;;;5016933;28;20968;-51
2023/06/06 08:53:33;;;;;;;3.97;3.67;;;28.50;35.10;;;;;;5021039;28;20445;-49
2023/06/06 08:56:00;;;;;;;3.83;3.53;;;28.60;34.70;;;;;;5026045;28;20475;-52
2023/06/06 08:58:29;;;;;;;4.10;3.80;;;28.80;34.60;;;;;;5015500;28;20503;-53
2023/06/06 09:00:58;;;;;;;5.33;3.87;;;28.90;35.00;;;;;;5020574;28;20447;-49
2023/06/06 09:03:27;;;;;;;3.03;2.83;;;29.20;34.70;;;;;;5022306;28;20460;-48
2023/06/06 09:05:53;;;;;;;4.40;4.00;;;29.30;33.40;;;;;;5022900;28;20444;-52
2023/06/06 09:08:19;;;;;;;6.93;3.97;;;29.40;33.30;;;;;;5022970;28;20441;-52
2023/06/06 09:10:45;;;;;;;3.53;3.30;;;29.50;33.20;;;;;;5019290;28;20247;-52
2023/06/06 09:13:11;;;;;;;4.70;3.57;;;29.70;32.90;;;;;;5019432;28;20452;-53
2023/06/06 09:15:36;;;;;;;4.17;3.70;;;29.80;33.10;;;;;;5014781;28;22438;-53
2023/06/06 09:18:02;;;;;;;4.07;3.67;;;29.90;33.30;;;;;;5022877;28;20401;-52
2023/06/06 09:20:27;;;;;;;3.83;3.53;;;29.90;32.70;;;;;;5029593;28;20612;-49
2023/06/06 09:22:57;;;;;;;5.30;3.63;;;30.00;32.30;;;;;;5022654;28;20193;-49
2023/06/06 09:25:24;;;;;;;3.90;3.60;;;29.90;32.40;;;;;;5025262;28;20201;-53
2023/06/06 09:28:01;;;;;;;5.40;4.90;;;30.10;33.00;;;;;;5017689;28;20476;-52
2023/06/06 09:30:28;;;;;;;3.90;3.43;;;30.30;32.70;;;;;;5031242;28;20955;-52
2023/06/06 09:33:00;;;;;;;4.33;3.93;;;30.50;32.50;;;;;;5018537;28;20536;-51
2023/06/06 09:35:43;;;;;;;7.40;4.50;;;30.60;31.40;;;;;;5021357;28;20458;-51
2023/06/06 09:38:20;;;;;;;4.40;4.00;;;30.70;31.00;;;;;;5019047;28;20483;-55
2023/06/06 09:40:50;;;;;;;4.40;4.00;;;30.90;32.10;;;;;;5026765;28;20538;-53
2023/06/06 09:43:23;;;;;;;5.43;3.93;;;30.90;32.50;;;;;;5027754;28;20470;-49
2023/06/06 09:45:50;;;;;;;3.80;3.50;;;31.00;32.00;;;;;;5024484;28;20463;-51
2023/06/06 09:48:23;;;;;;;5.97;3.97;;;31.10;32.30;;;;;;5029682;28;20448;-50
2023/06/06 09:50:50;;;;;;;5.57;4.47;;;31.00;31.00;;;;;;5024731;28;20483;-50
2023/06/06 09:53:16;;;;;;;4.47;4.17;;;31.00;31.30;;;;;;5012796;28;20452;-50
2023/06/06 09:55:42;;;;;;;5.20;4.80;;;31.30;32.00;;;;;;5026349;28;20563;-53
2023/06/06 09:58:17;;;;;;;4.47;4.17;;;31.50;30.90;;;;;;5029338;28;20833;-52
2023/06/06 10:00:47;;;;;;;3.83;3.63;;;31.60;30.50;;;;;;5022422;28;20443;-54
2023/06/06 10:03:18;;;;;;;6.43;4.30;;;31.60;30.80;;;;;;5027204;28;20479;-52
2023/06/06 10:05:51;;;;;;;7.63;4.37;;;31.30;30.20;;;;;;5025914;28;20452;-54
2023/06/06 10:08:18;;;;;;;4.60;4.20;;;31.40;30.50;;;;;;5020310;28;20912;-51
2023/06/06 10:10:46;;;;;;;4.67;4.30;;;31.60;31.30;;;;;;5019749;28;20867;-50
2023/06/06 10:13:27;;;;;;;4.30;3.90;;;31.70;31.30;;;;;;5026048;28;20859;-50
2023/06/06 10:15:54;;;;;;;4.67;4.17;;;31.90;30.90;;;;;;5018971;28;20460;-52
2023/06/06 10:18:21;;;;;;;4.77;4.37;;;31.90;30.00;;;;;;5030596;28;20489;-53
2023/06/06 10:20:47;;;;;;;5.57;4.77;;;31.90;29.60;;;;;;5028190;28;20479;-54
2023/06/06 10:23:13;;;;;;;4.63;4.30;;;31.90;29.80;;;;;;5026655;28;20442;-54
2023/06/06 10:25:40;;;;;;;5.30;4.80;;;31.90;30.00;;;;;;5018368;28;20518;-52
2023/06/06 10:28:12;;;;;;;5.07;4.57;;;31.90;30.70;;;;;;5025634;28;20193;-51
2023/06/06 10:30:41;;;;;;;5.73;5.13;;;32.00;30.40;;;;;;5029156;28;20554;-51
2023/06/06 10:33:17;;;;;;;7.33;4.40;;;32.00;29.90;;;;;;5030565;28;20428;-51
2023/06/06 10:35:46;;;;;;;6.43;5.17;;;32.20;30.10;;;;;;5016275;28;21018;-51
2023/06/06 10:38:12;;;;;;;5.03;4.40;;;32.30;30.50;;;;;;5028626;28;20491;-53
2023/06/06 10:40:52;;;;;;;6.10;4.90;;;32.50;29.70;;;;;;5021413;28;20460;-53
2023/06/06 10:43:20;;;;;;;4.10;3.80;;;32.70;30.00;;;;;;5027724;28;20431;-53
2023/06/06 10:45:49;;;;;;;5.23;4.33;;;32.90;29.90;;;;;;5023777;28;20876;-50
2023/06/06 10:48:15;;;;;;;4.70;4.30;;;33.00;28.90;;;;;;5028081;28;21263;-49
2023/06/06 10:50:53;;;;;;;8.67;4.00;;;33.30;28.50;;;;;;5034605;28;20540;-53
2023/06/06 10:53:19;;;;;;;8.30;4.53;;;33.40;28.40;;;;;;5009845;28;20300;-52
2023/06/06 10:55:46;;;;;;;7.90;4.60;;;33.40;28.60;;;;;;5021503;28;21334;-51
2023/06/06 10:58:20;;;;;;;4.87;4.47;;;33.50;28.30;;;;;;5018130;28;20228;-51
2023/06/06 11:00:47;;;;;;;5.10;4.60;;;33.50;28.00;;;;;;5024765;28;20746;-51
2023/06/06 11:03:31;;;;;;;6.57;5.93;;;33.50;28.20;;;;;;5028469;28;20416;-51
2023/06/06 11:06:00;;;;;;;5.57;5.00;;;33.60;28.20;;;;;;5024664;28;20785;-48
2023/06/06 11:08:36;;;;;;;4.80;4.40;;;33.70;28.10;;;;;;5034229;28;21021;-49
2023/06/06 11:11:29;;;;;;;6.53;4.63;;;33.50;28.10;;;;;;5027226;28;20442;-49
2023/06/06 11:13:56;;;;;;;4.17;3.87;;;33.50;27.10;;;;;;5033000;28;20455;-48
2023/06/06 11:16:38;;;;;;;6.90;4.80;;;33.50;26.60;;;;;;5022296;28;20572;-48
2023/06/06 11:19:08;;;;;;;9.20;4.60;;;33.60;26.60;;;;;;5020709;28;20863;-48
2023/06/06 11:21:40;;;;;;;4.50;4.10;;;33.50;26.80;;;;;;5025760;28;20439;-48
2023/06/06 11:24:07;;;;;;;4.60;3.77;;;33.50;26.00;;;;;;5032139;28;20497;-48
2023/06/06 11:26:34;;;;;;;4.73;4.33;;;33.50;25.20;;;;;;5027615;28;20440;-48
2023/06/06 11:29:00;;;;;;;6.47;4.70;;;33.50;25.80;;;;;;5028846;28;20441;-48
2023/06/06 11:31:26;;;;;;;5.10;4.70;;;33.70;26.60;;;;;;5021743;28;20440;-49
2023/06/06 11:34:13;;;;;;;5.17;4.30;;;33.90;26.80;;;;;;5019426;28;20451;-52
2023/06/06 11:36:42;;;;;;;4.97;4.57;;;34.10;26.80;;;;;;5021145;28;20479;-49
2023/06/06 11:39:11;;;;;;;5.47;4.97;;;34.00;27.30;;;;;;5031899;28;20489;-48
2023/06/06 11:41:41;;;;;;;6.07;5.47;;;34.10;27.00;;;;;;5033516;28;20494;-48
2023/06/06 11:44:07;;;;;;;5.10;4.70;;;33.90;27.10;;;;;;5029404;28;20459;-51
2023/06/06 11:46:46;;;;;;;5.20;4.80;;;33.90;27.60;;;;;;5024162;28;20443;-50
2023/06/06 11:49:11;;;;;;;5.30;4.80;;;34.00;28.00;;;;;;5031059;28;20620;-50
2023/06/06 11:51:37;;;;;;;5.00;4.23;;;34.20;27.60;;;;;;5024318;28;20461;-48
2023/06/06 11:54:13;;;;;;;5.17;4.77;;;34.30;27.60;;;;;;5029248;28;20193;-51
2023/06/06 11:56:40;;;;;;;5.60;4.17;;;34.40;27.30;;;;;;5030414;28;20696;-49
2023/06/06 11:59:08;;;;;;;4.53;4.13;;;34.40;26.50;;;;;;5023277;28;20833;-50
2023/06/06 12:01:34;;;;;;;6.53;4.57;;;33.90;26.60;;;;;;5035433;28;20444;-49
2023/06/06 12:03:59;;;;;;;4.60;4.20;;;33.90;27.00;;;;;;5025824;28;20466;-48
2023/06/06 12:06:25;;;;;;;5.30;4.60;;;34.00;26.60;;;;;;5022102;28;20236;-50
2023/06/06 12:08:51;;;;;;;4.40;4.10;;;33.90;26.10;;;;;;5031553;28;20185;-49
2023/06/06 12:11:27;;;;;;;8.70;4.80;;;34.00;26.60;;;;;;5031376;28;20259;-50
2023/06/06 12:13:53;;;;;;;4.97;4.47;;;34.00;26.50;;;;;;5030621;28;20235;-49
2023/06/06 12:16:23;;;;;;;4.90;4.10;;;34.10;27.10;;;;;;5031410;28;20432;-49
2023/06/06 12:18:50;;;;;;;4.20;3.90;;;34.20;26.60;;;;;;5030588;28;20577;-49
2023/06/06 12:21:16;;;;;;;4.10;3.80;;;34.30;26.70;;;;;;5029842;28;20471;-49
2023/06/06 12:23:46;;;;;;;4.50;3.93;;;34.30;26.00;;;;;;5031018;28;20447;-49
2023/06/06 12:26:12;;;;;;;6.50;4.23;;;34.60;25.90;;;;;;5031635;28;20951;-49
2023/06/06 12:28:58;;;;;;;4.63;4.33;;;34.40;25.30;;;;;;5026207;28;20440;-49
2023/06/06 12:31:25;;;;;;;4.50;4.10;;;34.50;25.40;;;;;;5025426;28;20459;-49
2023/06/06 12:33:53;;;;;;;5.70;3.80;;;34.60;25.80;;;;;;5030573;28;20428;-48
2023/06/06 12:36:21;;;;;;;4.60;4.30;;;34.70;25.60;;;;;;5031594;28;20450;-53
2023/06/06 12:39:08;;;;;;;3.40;3.20;;;34.90;25.10;;;;;;5028670;28;20491;-49
2023/06/06 12:41:41;;;;;;;4.10;3.80;;;34.80;25.80;;;;;;5028596;28;20447;-49
2023/06/06 12:44:15;;;;;;;4.80;4.40;;;34.90;25.10;;;;;;5035242;28;20440;-49
2023/06/06 12:46:45;;;;;;;5.20;4.17;;;35.10;24.70;;;;;;5031061;28;20468;-50
2023/06/06 12:49:10;;;;;;;4.57;4.13;;;35.30;25.00;;;;;;5028987;28;20440;-50
2023/06/06 12:51:39;;;;;;;4.93;4.53;;;35.20;24.80;;;;;;5026172;28;20451;-50